createdAt,value
2018-11-27T00:00:24.671Z,1.60
2018-11-27T00:02:54.160Z,1.70
2018-11-27T00:05:22.697Z,1.70
2018-11-27T00:07:51.220Z,1.80
2018-11-27T00:10:19.748Z,1.80
2018-11-27T00:12:48.245Z,1.90
2018-11-27T00:15:16.694Z,1.70
2018-11-27T00:17:45.169Z,1.70
2018-11-27T00:20:14.484Z,1.60
2018-11-27T00:22:43.030Z,1.50
2018-11-27T00:25:12.967Z,1.70
2018-11-27T00:27:41.425Z,1.70
2018-11-27T00:30:12.109Z,1.70
2018-11-27T00:32:40.583Z,1.80
2018-11-27T00:35:12.027Z,1.70
2018-11-27T00:37:40.562Z,1.70
2018-11-27T00:40:15.354Z,1.50
2018-11-27T00:42:43.895Z,1.60
2018-11-27T00:45:14.494Z,1.70
2018-11-27T00:47:43.956Z,1.80
2018-11-27T00:50:15.869Z,1.80
2018-11-27T00:52:44.290Z,1.80
2018-11-27T00:55:14.869Z,1.90
2018-11-27T00:57:44.079Z,1.90
2018-11-27T01:00:14.595Z,1.90
2018-11-27T01:02:43.071Z,1.90
2018-11-27T01:05:12.679Z,1.90
2018-11-27T01:07:41.102Z,1.70
2018-11-27T01:10:12.282Z,1.70
2018-11-27T01:12:40.698Z,1.70
2018-11-27T01:15:11.391Z,1.90
2018-11-27T01:17:41.235Z,1.90
2018-11-27T01:20:13.414Z,1.90
2018-11-27T01:22:41.910Z,1.90
2018-11-27T01:25:11.049Z,1.90
2018-11-27T01:27:39.547Z,1.90
2018-11-27T01:30:16.852Z,1.90
2018-11-27T01:32:45.422Z,1.90
2018-11-27T01:35:17.874Z,1.90
2018-11-27T01:37:46.988Z,1.90
2018-11-27T01:40:17.283Z,1.90
2018-11-27T01:42:46.618Z,1.90
2018-11-27T01:45:16.526Z,1.90
2018-11-27T01:47:45.204Z,1.90
2018-11-27T01:50:14.616Z,1.90
2018-11-27T01:52:43.151Z,1.90
2018-11-27T01:55:14.524Z,1.90
2018-11-27T01:57:42.979Z,1.90
2018-11-27T02:00:22.718Z,1.80
2018-11-27T02:02:51.646Z,1.80
2018-11-27T02:05:20.330Z,1.80
2018-11-27T02:07:48.779Z,1.90
2018-11-27T02:10:17.218Z,1.80
2018-11-27T02:12:47.126Z,1.80
2018-11-27T02:15:20.628Z,1.80
2018-11-27T02:17:49.147Z,1.90
2018-11-27T02:20:17.637Z,1.90
2018-11-27T02:22:46.114Z,1.90
2018-11-27T02:25:32.878Z,1.80
2018-11-27T02:28:01.325Z,1.90
2018-11-27T02:30:29.785Z,1.80
2018-11-27T02:32:58.275Z,1.80
2018-11-27T02:35:27.451Z,1.80
2018-11-27T02:37:57.185Z,1.80
2018-11-27T02:40:25.647Z,1.60
2018-11-27T02:42:54.079Z,1.60
2018-11-27T02:45:23.817Z,1.50
2018-11-27T02:47:53.047Z,1.50
2018-11-27T02:50:22.504Z,1.40
2018-11-27T02:52:50.915Z,1.50
2018-11-27T02:55:21.409Z,1.60
2018-11-27T02:57:50.011Z,1.70
2018-11-27T03:00:21.460Z,1.60
2018-11-27T03:02:49.985Z,1.70
2018-11-27T03:05:24.546Z,1.70
2018-11-27T03:07:53.045Z,1.70
2018-11-27T03:10:21.479Z,1.70
2018-11-27T03:12:50.017Z,1.70
2018-11-27T03:15:18.591Z,1.70
2018-11-27T03:17:47.099Z,1.70
2018-11-27T03:20:16.763Z,1.70
2018-11-27T03:22:45.300Z,1.70
2018-11-27T03:25:15.050Z,1.70
2018-11-27T03:27:44.278Z,1.80
2018-11-27T03:30:16.651Z,1.80
2018-11-27T03:32:45.238Z,1.80
2018-11-27T03:35:15.661Z,1.70
2018-11-27T03:37:44.721Z,1.90
2018-11-27T03:40:15.488Z,1.80
2018-11-27T03:42:43.983Z,1.80
2018-11-27T03:45:13.624Z,1.80
2018-11-27T03:47:42.139Z,1.70
2018-11-27T03:50:15.911Z,1.80
2018-11-27T03:52:44.471Z,1.80
2018-11-27T03:55:13.384Z,1.80
2018-11-27T03:57:41.832Z,1.70
2018-11-27T04:00:15.724Z,1.70
2018-11-27T04:02:45.085Z,1.80
2018-11-27T04:05:13.954Z,1.80
2018-11-27T04:07:42.457Z,1.80
2018-11-27T04:10:14.223Z,1.80
2018-11-27T04:12:43.247Z,1.80
2018-11-27T04:15:12.538Z,1.70
2018-11-27T04:17:41.067Z,1.70
2018-11-27T04:20:10.667Z,1.80
2018-11-27T04:22:39.796Z,1.80
2018-11-27T04:25:10.003Z,1.80
2018-11-27T04:27:38.575Z,1.90
2018-11-27T04:30:09.448Z,1.90
2018-11-27T04:32:37.944Z,1.80
2018-11-27T04:35:07.199Z,1.80
2018-11-27T04:37:35.711Z,1.80
2018-11-27T04:40:05.013Z,1.80
2018-11-27T04:42:33.463Z,1.80
2018-11-27T04:45:01.956Z,1.90
2018-11-27T04:47:30.432Z,1.80
2018-11-27T04:49:58.948Z,1.80
2018-11-27T04:52:27.423Z,1.80
2018-11-27T04:54:55.988Z,1.80
2018-11-27T04:57:24.443Z,1.80
2018-11-27T04:59:52.911Z,1.80
2018-11-27T05:02:21.407Z,1.80
2018-11-27T05:04:49.876Z,1.80
2018-11-27T05:07:18.311Z,1.80
2018-11-27T05:09:46.747Z,1.80
2018-11-27T05:12:15.228Z,1.90
2018-11-27T05:14:43.684Z,1.90
2018-11-27T05:17:12.161Z,1.90
2018-11-27T05:19:40.659Z,1.80
2018-11-27T05:22:09.124Z,1.80
2018-11-27T05:24:37.618Z,1.80
2018-11-27T05:27:06.104Z,1.90
2018-11-27T05:29:34.603Z,1.90
2018-11-27T05:32:03.058Z,1.90
2018-11-27T05:34:31.623Z,1.80
2018-11-27T05:37:00.056Z,1.90
2018-11-27T05:39:28.484Z,1.90
2018-11-27T05:41:56.939Z,1.90
2018-11-27T05:44:25.381Z,1.90
2018-11-27T05:46:53.909Z,1.90
2018-11-27T05:49:22.352Z,1.90
2018-11-27T05:51:50.816Z,1.90
2018-11-27T05:54:19.299Z,1.90
2018-11-27T05:56:47.739Z,1.90
2018-11-27T05:59:16.203Z,1.90
2018-11-27T06:01:45.247Z,1.90
2018-11-27T06:04:13.714Z,1.90
2018-11-27T06:06:42.175Z,1.90
2018-11-27T06:09:10.779Z,1.90
2018-11-27T06:11:39.938Z,1.90
2018-11-27T06:14:08.456Z,1.90
2018-11-27T06:16:36.867Z,1.90
2018-11-27T06:19:05.571Z,1.90
2018-11-27T06:21:34.003Z,1.90
2018-11-27T06:24:02.502Z,1.90
2018-11-27T06:26:31.045Z,1.80
2018-11-27T06:28:59.583Z,1.80
2018-11-27T06:31:28.133Z,1.90
2018-11-27T06:33:56.706Z,1.80
2018-11-27T06:36:25.367Z,1.80
2018-11-27T06:38:54.060Z,1.80
2018-11-27T06:41:22.732Z,1.80
2018-11-27T06:43:51.376Z,1.80
2018-11-27T06:46:20.127Z,1.80
2018-11-27T06:48:48.861Z,1.80
2018-11-27T06:51:17.567Z,1.80
2018-11-27T06:53:46.323Z,1.90
2018-11-27T06:56:14.762Z,1.80
2018-11-27T06:58:43.830Z,1.90
2018-11-27T07:01:12.501Z,1.80
2018-11-27T07:03:41.279Z,1.90
2018-11-27T07:06:09.916Z,1.80
2018-11-27T07:08:38.647Z,1.80
2018-11-27T07:11:07.649Z,1.80
2018-11-27T07:13:36.363Z,1.90
2018-11-27T07:16:04.967Z,1.90
2018-11-27T07:18:33.625Z,1.90
2018-11-27T07:21:02.203Z,1.90
2018-11-27T07:23:30.733Z,1.90
2018-11-27T07:25:59.355Z,1.90
2018-11-27T07:28:27.928Z,1.90
2018-11-27T07:30:56.530Z,1.90
2018-11-27T07:33:25.133Z,1.90
2018-11-27T07:35:53.663Z,1.90
2018-11-27T07:38:22.200Z,1.90
2018-11-27T07:40:50.813Z,2.00
2018-11-27T07:43:19.423Z,2.00
2018-11-27T07:45:48.095Z,2.00
2018-11-27T07:48:16.712Z,2.00
2018-11-27T07:50:45.269Z,2.10
2018-11-27T07:53:13.808Z,2.00
2018-11-27T07:55:42.493Z,2.10
2018-11-27T07:58:11.079Z,2.10
2018-11-27T08:00:39.656Z,2.20
2018-11-27T08:03:08.374Z,2.10
2018-11-27T08:05:41.820Z,2.10
2018-11-27T08:08:12.395Z,2.10
2018-11-27T08:10:41.479Z,2.10
2018-11-27T08:13:10.652Z,2.10
2018-11-27T08:15:39.468Z,2.10
2018-11-27T08:18:08.962Z,2.10
2018-11-27T08:20:37.576Z,2.20
2018-11-27T08:23:07.269Z,2.20
2018-11-27T08:25:36.000Z,2.30
2018-11-27T08:28:05.374Z,2.30
2018-11-27T08:30:34.205Z,2.30
2018-11-27T08:33:03.090Z,2.20
2018-11-27T08:35:31.710Z,2.30
2018-11-27T08:38:01.421Z,2.20
2018-11-27T08:40:33.329Z,2.30
2018-11-27T08:43:02.046Z,2.30
2018-11-27T08:45:30.607Z,2.40
2018-11-27T08:47:59.241Z,2.40
2018-11-27T08:50:28.499Z,2.40
2018-11-27T08:52:59.234Z,2.50
2018-11-27T08:55:31.914Z,2.60
2018-11-27T08:58:01.526Z,2.70
2018-11-27T09:00:30.258Z,2.70
2018-11-27T09:02:59.022Z,2.70
2018-11-27T09:05:27.712Z,2.60
2018-11-27T09:07:56.367Z,2.60
2018-11-27T09:10:25.772Z,2.60
2018-11-27T09:12:54.391Z,2.70
2018-11-27T09:15:23.896Z,2.80
2018-11-27T09:17:54.172Z,2.90
2018-11-27T09:20:22.887Z,2.90
2018-11-27T09:22:51.685Z,3.00
2018-11-27T09:25:20.334Z,2.80
2018-11-27T09:27:54.625Z,3.30
2018-11-27T09:30:29.082Z,3.70
2018-11-27T09:32:58.074Z,3.70
2018-11-27T09:35:26.970Z,4.00
2018-11-27T09:37:55.894Z,3.90
2018-11-27T09:40:24.648Z,3.80
2018-11-27T09:42:59.159Z,3.50
2018-11-27T09:45:27.859Z,3.60
2018-11-27T09:47:57.954Z,3.40
2018-11-27T09:50:26.911Z,3.30
2018-11-27T09:52:55.818Z,3.30
2018-11-27T09:55:25.871Z,3.50
2018-11-27T09:57:59.002Z,3.40
2018-11-27T10:00:26.420Z,3.40
2018-11-27T10:02:58.602Z,3.40
2018-11-27T10:05:27.336Z,3.50
2018-11-27T10:07:56.173Z,3.50
2018-11-27T10:10:25.841Z,3.60
2018-11-27T10:12:54.564Z,3.70
2018-11-27T10:15:27.522Z,3.70
2018-11-27T10:17:57.526Z,3.80
2018-11-27T10:20:29.623Z,3.70
2018-11-27T10:22:58.398Z,3.50
2018-11-27T10:25:27.028Z,3.60
2018-11-27T10:27:55.806Z,3.30
2018-11-27T10:30:25.955Z,3.20
2018-11-27T10:32:56.020Z,3.00
2018-11-27T10:35:30.816Z,3.00
2018-11-27T10:37:59.624Z,3.30
2018-11-27T10:40:28.553Z,3.50
2018-11-27T10:42:57.616Z,3.50
2018-11-27T10:45:26.820Z,3.60
2018-11-27T10:47:56.368Z,3.60
2018-11-27T10:50:25.566Z,3.60
2018-11-27T10:52:56.641Z,3.40
2018-11-27T10:55:26.602Z,3.40
2018-11-27T10:57:55.395Z,3.50
2018-11-27T11:00:32.036Z,3.50
2018-11-27T11:03:07.010Z,3.50
2018-11-27T11:05:36.931Z,3.60
2018-11-27T11:08:05.945Z,3.70
2018-11-27T11:10:35.440Z,3.80
2018-11-27T11:13:05.703Z,3.80
2018-11-27T11:15:34.722Z,3.70
2018-11-27T11:18:04.791Z,3.90
2018-11-27T11:20:34.030Z,4.00
2018-11-27T11:23:03.085Z,3.90
2018-11-27T11:25:31.923Z,3.90
2018-11-27T11:28:00.636Z,3.90
2018-11-27T11:30:29.592Z,3.80
2018-11-27T11:32:58.696Z,3.70
2018-11-27T11:35:27.644Z,3.50
2018-11-27T11:37:56.573Z,3.60
2018-11-27T11:40:26.220Z,3.20
2018-11-27T11:42:56.571Z,3.30
2018-11-27T11:45:25.938Z,3.40
2018-11-27T11:47:54.793Z,3.40
2018-11-27T11:50:27.133Z,3.50
2018-11-27T11:53:12.240Z,3.50
2018-11-27T11:55:41.154Z,3.50
2018-11-27T11:58:10.263Z,3.60
2018-11-27T12:00:45.733Z,3.60
2018-11-27T12:03:14.831Z,3.50
2018-11-27T12:05:43.528Z,3.50
2018-11-27T12:08:12.330Z,3.40
2018-11-27T12:10:41.319Z,3.40
2018-11-27T12:13:11.204Z,3.50
2018-11-27T12:15:40.076Z,3.40
2018-11-27T12:18:10.039Z,3.40
2018-11-27T12:20:40.136Z,3.40
2018-11-27T12:23:10.352Z,3.30
2018-11-27T12:25:39.902Z,3.30
2018-11-27T12:28:14.370Z,3.30
2018-11-27T12:30:38.604Z,3.50
2018-11-27T12:33:07.880Z,3.40
2018-11-27T12:35:36.857Z,3.40
2018-11-27T12:38:06.095Z,3.20
2018-11-27T12:40:34.919Z,3.10
2018-11-27T12:43:03.893Z,3.10
2018-11-27T12:45:33.547Z,3.20
2018-11-27T12:48:03.567Z,3.10
2018-11-27T12:50:39.579Z,3.00
2018-11-27T12:53:09.638Z,3.10
2018-11-27T12:55:40.333Z,3.10
2018-11-27T12:58:09.267Z,3.20
2018-11-27T13:00:38.363Z,3.00
2018-11-27T13:03:07.445Z,2.80
2018-11-27T13:05:40.711Z,3.00
2018-11-27T13:08:12.332Z,3.00
2018-11-27T13:10:41.383Z,3.10
2018-11-27T13:13:10.329Z,3.20
2018-11-27T13:15:40.148Z,3.10
2018-11-27T13:18:09.805Z,3.00
2018-11-27T13:20:39.524Z,2.90
2018-11-27T13:23:09.214Z,2.90
2018-11-27T13:25:39.128Z,3.00
2018-11-27T13:28:09.883Z,3.00
2018-11-27T13:30:47.886Z,3.00
2018-11-27T13:33:21.869Z,3.00
2018-11-27T13:35:50.918Z,2.90
2018-11-27T13:38:20.262Z,3.00
2018-11-27T13:40:49.389Z,2.90
2018-11-27T13:43:25.497Z,2.90
2018-11-27T13:45:55.068Z,2.90
2018-11-27T13:48:23.779Z,3.00
2018-11-27T13:50:52.772Z,2.80
2018-11-27T13:53:21.727Z,2.80
2018-11-27T13:55:50.658Z,3.00
2018-11-27T13:58:19.615Z,3.10
2018-11-27T14:00:48.354Z,3.00
2018-11-27T14:03:17.147Z,2.70
2018-11-27T14:05:46.124Z,2.80
2018-11-27T14:08:15.172Z,2.90
2018-11-27T14:10:44.124Z,2.80
2018-11-27T14:13:12.899Z,2.80
2018-11-27T14:15:41.780Z,2.80
2018-11-27T14:18:10.542Z,2.90
2018-11-27T14:20:39.555Z,2.90
2018-11-27T14:23:08.520Z,2.70
2018-11-27T14:25:37.464Z,2.80
2018-11-27T14:28:06.505Z,2.70
2018-11-27T14:30:35.697Z,2.70
2018-11-27T14:33:04.775Z,2.80
2018-11-27T14:35:34.089Z,2.90
2018-11-27T14:38:03.014Z,2.80
2018-11-27T14:40:31.877Z,2.80
2018-11-27T14:43:01.400Z,2.90
2018-11-27T14:45:30.272Z,2.80
2018-11-27T14:47:59.883Z,2.80
2018-11-27T14:50:29.252Z,2.80
2018-11-27T14:52:58.481Z,2.80
2018-11-27T14:55:29.910Z,2.70
2018-11-27T14:57:58.898Z,2.70
2018-11-27T15:00:28.272Z,2.60
2018-11-27T15:02:57.564Z,2.70
2018-11-27T15:05:29.454Z,2.60
2018-11-27T15:07:58.223Z,2.60
2018-11-27T15:10:27.038Z,2.60
2018-11-27T15:12:56.040Z,2.60
2018-11-27T15:15:24.681Z,2.60
2018-11-27T15:17:53.775Z,2.60
2018-11-27T15:20:23.302Z,2.50
2018-11-27T15:22:52.146Z,2.50
2018-11-27T15:25:22.498Z,2.50
2018-11-27T15:27:51.659Z,2.50
2018-11-27T15:30:24.172Z,2.50
2018-11-27T15:32:54.521Z,2.50
2018-11-27T15:35:23.826Z,2.50
2018-11-27T15:37:52.494Z,2.50
2018-11-27T15:40:22.647Z,2.40
2018-11-27T15:42:51.917Z,2.30
2018-11-27T15:45:24.346Z,2.30
2018-11-27T15:47:52.952Z,2.30
2018-11-27T15:50:22.535Z,2.30
2018-11-27T15:52:51.106Z,2.30
2018-11-27T15:55:22.187Z,2.20
2018-11-27T15:57:52.177Z,2.10
2018-11-27T16:00:21.272Z,2.10
2018-11-27T16:02:50.035Z,2.10
2018-11-27T16:05:18.715Z,2.00
2018-11-27T16:07:47.438Z,2.00
2018-11-27T16:10:17.269Z,2.10
2018-11-27T16:12:45.998Z,2.00
2018-11-27T16:15:16.685Z,2.00
2018-11-27T16:17:45.201Z,2.00
2018-11-27T16:20:15.131Z,2.10
2018-11-27T16:22:44.526Z,2.10
2018-11-27T16:25:17.081Z,2.20
2018-11-27T16:27:46.255Z,2.20
2018-11-27T16:30:18.182Z,2.20
2018-11-27T16:32:46.621Z,2.20
2018-11-27T16:35:15.783Z,2.20
2018-11-27T16:37:45.742Z,2.20
2018-11-27T16:40:16.959Z,2.10
2018-11-27T16:42:45.491Z,2.20
2018-11-27T16:45:15.443Z,2.20
2018-11-27T16:47:44.456Z,2.20
2018-11-27T16:50:13.942Z,2.20
2018-11-27T16:52:42.735Z,2.20
2018-11-27T16:55:12.628Z,2.10
2018-11-27T16:57:41.556Z,2.10
2018-11-27T17:00:41.275Z,2.10
2018-11-27T17:03:09.784Z,2.20
2018-11-27T17:05:41.007Z,2.20
2018-11-27T17:08:09.583Z,2.20
2018-11-27T17:10:39.513Z,2.20
2018-11-27T17:13:09.249Z,2.20
2018-11-27T17:15:38.311Z,2.20
2018-11-27T17:18:07.757Z,2.20
2018-11-27T17:20:37.937Z,2.20
2018-11-27T17:23:11.865Z,2.20
2018-11-27T17:25:40.371Z,2.20
2018-11-27T17:28:15.727Z,2.10
2018-11-27T17:30:51.180Z,2.00
2018-11-27T17:33:22.079Z,2.00
2018-11-27T17:35:50.580Z,2.10
2018-11-27T17:38:19.083Z,2.10
2018-11-27T17:40:47.638Z,2.10
2018-11-27T17:43:16.215Z,2.10
2018-11-27T17:45:44.665Z,2.20
2018-11-27T17:48:13.156Z,2.20
2018-11-27T17:50:41.675Z,2.20
2018-11-27T17:53:10.147Z,2.20
2018-11-27T17:55:38.627Z,2.20
2018-11-27T17:58:07.136Z,2.20
2018-11-27T18:00:35.772Z,2.10
2018-11-27T18:03:07.736Z,2.10
2018-11-27T18:05:36.239Z,2.10
2018-11-27T18:08:05.263Z,2.00
2018-11-27T18:10:33.726Z,2.10
2018-11-27T18:13:02.376Z,2.10
2018-11-27T18:15:30.876Z,2.20
2018-11-27T18:17:59.348Z,2.10
2018-11-27T18:20:27.928Z,2.20
2018-11-27T18:22:56.529Z,2.20
2018-11-27T18:25:25.021Z,2.20
2018-11-27T18:27:53.505Z,2.20
2018-11-27T18:30:23.159Z,2.10
2018-11-27T18:32:51.787Z,2.20
2018-11-27T18:35:23.452Z,2.20
2018-11-27T18:37:52.560Z,2.20
2018-11-27T18:40:21.442Z,2.20
2018-11-27T18:42:50.182Z,2.20
2018-11-27T18:45:21.957Z,2.20
2018-11-27T18:47:50.627Z,2.20
2018-11-27T18:50:19.630Z,2.20
2018-11-27T18:52:48.260Z,2.20
2018-11-27T18:55:17.669Z,2.20
2018-11-27T18:57:47.022Z,2.20
2018-11-27T19:00:17.169Z,2.20
2018-11-27T19:02:46.192Z,2.20
2018-11-27T19:05:14.704Z,2.20
2018-11-27T19:07:43.446Z,2.20
2018-11-27T19:10:15.248Z,2.20
2018-11-27T19:12:43.895Z,2.20
2018-11-27T19:15:18.086Z,2.20
2018-11-27T19:17:48.242Z,2.20
2018-11-27T19:20:16.906Z,2.20
2018-11-27T19:22:45.567Z,2.20
2018-11-27T19:25:15.247Z,2.20
2018-11-27T19:27:43.917Z,2.10
2018-11-27T19:30:16.225Z,2.10
2018-11-27T19:32:43.343Z,2.10
2018-11-27T19:35:13.345Z,2.10
2018-11-27T19:37:41.998Z,2.10
2018-11-27T19:40:13.961Z,2.10
2018-11-27T19:42:42.514Z,2.10
2018-11-27T19:45:28.831Z,2.10
2018-11-27T19:47:57.684Z,2.10
2018-11-27T19:50:26.266Z,2.10
2018-11-27T19:52:55.990Z,2.10
2018-11-27T19:55:24.498Z,2.10
2018-11-27T19:57:53.341Z,2.00
2018-11-27T20:00:23.236Z,2.00
2018-11-27T20:02:52.046Z,2.00
2018-11-27T20:05:23.796Z,1.90
2018-11-27T20:07:52.801Z,1.90
2018-11-27T20:10:21.363Z,1.90
2018-11-27T20:12:50.095Z,1.90
2018-11-27T20:15:24.023Z,1.90
2018-11-27T20:17:53.561Z,1.90
2018-11-27T20:20:23.399Z,1.90
2018-11-27T20:22:52.214Z,1.90
2018-11-27T20:25:21.886Z,1.90
2018-11-27T20:27:50.886Z,1.90
2018-11-27T20:30:21.721Z,1.80
2018-11-27T20:32:56.539Z,1.80
2018-11-27T20:35:25.465Z,1.80
2018-11-27T20:37:55.044Z,1.80
2018-11-27T20:40:23.546Z,1.80
2018-11-27T20:42:52.263Z,1.70
2018-11-27T20:45:23.109Z,1.70
2018-11-27T20:47:57.536Z,1.70
2018-11-27T20:50:26.143Z,1.60
2018-11-27T20:52:54.608Z,1.70
2018-11-27T20:55:23.123Z,1.70
2018-11-27T20:57:53.569Z,1.60
2018-11-27T21:00:24.572Z,1.70
2018-11-27T21:02:55.683Z,1.70
2018-11-27T21:05:24.528Z,1.70
2018-11-27T21:07:53.127Z,1.70
2018-11-27T21:10:21.917Z,1.70
2018-11-27T21:12:50.558Z,1.60
2018-11-27T21:15:20.092Z,1.70
2018-11-27T21:17:48.646Z,1.70
2018-11-27T21:20:17.963Z,1.60
2018-11-27T21:22:46.520Z,1.60
2018-11-27T21:25:22.805Z,1.60
2018-11-27T21:27:54.171Z,1.60
2018-11-27T21:30:22.868Z,1.60
2018-11-27T21:32:51.533Z,1.60
2018-11-27T21:35:20.114Z,1.60
2018-11-27T21:37:48.696Z,1.50
2018-11-27T21:40:18.712Z,1.50
2018-11-27T21:42:47.301Z,1.50
2018-11-27T21:45:25.017Z,1.50
2018-11-27T21:47:54.458Z,1.40
2018-11-27T21:50:28.824Z,1.40
2018-11-27T21:52:58.433Z,1.40
2018-11-27T21:55:27.209Z,1.40
2018-11-27T21:57:55.852Z,1.30
2018-11-27T22:00:25.583Z,1.30
2018-11-27T22:02:54.303Z,1.20
2018-11-27T22:05:22.827Z,1.20
2018-11-27T22:07:51.410Z,1.10
2018-11-27T22:10:21.496Z,1.10
2018-11-27T22:12:52.541Z,1.00
2018-11-27T22:15:25.674Z,1.00
2018-11-27T22:17:54.215Z,0.90
2018-11-27T22:20:22.787Z,0.90
2018-11-27T22:22:51.580Z,0.80
2018-11-27T22:25:20.070Z,0.80
2018-11-27T22:27:48.568Z,0.70
2018-11-27T22:30:18.451Z,0.70
2018-11-27T22:32:49.646Z,0.70
2018-11-27T22:35:18.193Z,0.60
2018-11-27T22:37:46.692Z,0.60
2018-11-27T22:40:17.262Z,0.50
2018-11-27T22:42:46.351Z,0.50
2018-11-27T22:45:17.160Z,0.50
2018-11-27T22:47:45.635Z,0.40
2018-11-27T22:50:16.334Z,0.40
2018-11-27T22:52:44.826Z,0.40
2018-11-27T22:55:13.470Z,0.40
2018-11-27T22:57:43.314Z,0.40
2018-11-27T23:00:21.651Z,0.40
2018-11-27T23:02:50.341Z,0.30
2018-11-27T23:05:20.147Z,0.30
2018-11-27T23:07:48.659Z,0.30
2018-11-27T23:10:17.262Z,0.30
2018-11-27T23:12:46.203Z,0.30
2018-11-27T23:15:16.675Z,0.30
2018-11-27T23:17:45.315Z,0.30
2018-11-27T23:20:17.835Z,0.20
2018-11-27T23:22:46.313Z,0.20
2018-11-27T23:25:16.490Z,0.20
2018-11-27T23:27:45.083Z,0.20
2018-11-27T23:30:19.213Z,0.20
2018-11-27T23:32:47.736Z,0.10
2018-11-27T23:35:16.482Z,0.10
2018-11-27T23:37:44.971Z,0.00
2018-11-27T23:40:14.923Z,-0.10
2018-11-27T23:42:43.960Z,-0.10
2018-11-27T23:45:17.789Z,-0.10
2018-11-27T23:47:46.458Z,-0.10
2018-11-27T23:50:16.566Z,-0.10
2018-11-27T23:52:45.309Z,-0.10
2018-11-27T23:55:15.022Z,-0.10
2018-11-27T23:57:44.071Z,-0.10
